Current Weather

Diori Hamani

Diori Hamani, Niger (DRRN)

Report from: Wednesday, April 24, 2024 6:00 PM WAT
Current time: Wednesday, April 24, 2024 7:04 PM WAT

Nearby weather – Weather history – Daily summaries
Weather forecast

Temperature45.0°C (113.0°F)
Heat index41.3°C (106.3°F)
Dew point3.0°C (37.4°F)
Winds 7 kts (3.6 m/s, 8.1 mph) North (350°)
Visibility6.2 mi. (10 km)
Clouds Few clouds 4,600 ft. (1,402 m)
Altimeter29.62 in.Hg (1003 mB)
Relative humidity8 %
Density altitude3,795 ft. (1,157 m)
Remarks No significant changes expected in the next two hours
Flight conditions Visual Meteorological Conditions
Raw dataDRRN 241700Z 35007KT 9999 FEW046 45/03 Q1003 NOSIG
An error has occurred. This application may no longer respond until reloaded. Reload 🗙